Time;durP1;ratioP1;P1;durP2;ratioP2;P2;SDS_P1;SDS_P2;PMS_P1;PMS_P2;Temp;Humidity;BMP_temperature;BMP_pressure;BME280_temperature;BME280_humidity;BME280_pressure;Samples;Min_cycle;Max_cycle;Signal;HPM_P1;HPM_P2
2022/09/27 00:00:59;;;;;;;;;;;;;;;19.65;78.30;94354.53;5053057;28;1016;-67
2022/09/27 00:03:26;;;;;;;;;;;;;;;19.62;78.24;94347.69;5053398;28;1055;-67
2022/09/27 00:06:03;;;;;;;;;;;;;;;19.65;78.94;94344.53;5053344;28;1043;-68
2022/09/27 00:08:29;;;;;;;;;;;;;;;19.64;79.06;94348.28;5053197;28;1049;-67
2022/09/27 00:10:59;;;;;;;;;;;;;;;19.66;78.88;94353.47;5053179;28;983;-67
2022/09/27 00:13:25;;;;;;;;;;;;;;;19.64;79.05;94351.00;5053056;28;1076;-67
2022/09/27 00:15:55;;;;;;;;;;;;;;;19.62;79.67;94352.31;5053122;28;1993;-67
2022/09/27 00:18:21;;;;;;;;;;;;;;;19.57;79.56;94350.28;5053132;28;1027;-67
2022/09/27 00:20:47;;;;;;;;;;;;;;;19.56;79.68;94340.50;5052949;28;1012;-67
2022/09/27 00:23:13;;;;;;;;;;;;;;;19.57;80.14;94344.88;5052990;28;964;-67
2022/09/27 00:25:39;;;;;;;;;;;;;;;19.50;80.53;94350.41;5052982;28;1007;-68
2022/09/27 00:28:05;;;;;;;;;;;;;;;19.51;80.95;94359.38;5052835;28;963;-67
2022/09/27 00:30:31;;;;;;;;;;;;;;;19.50;80.75;94360.41;5053095;28;1056;-67
2022/09/27 00:32:57;;;;;;;;;;;;;;;19.49;80.52;94356.06;5052826;28;1035;-66
2022/09/27 00:35:23;;;;;;;;;;;;;;;19.46;80.84;94348.41;5052949;28;1910;-67
2022/09/27 00:37:49;;;;;;;;;;;;;;;19.43;81.74;94332.63;5052988;28;1007;-68
2022/09/27 00:40:15;;;;;;;;;;;;;;;19.35;82.46;94333.81;5035173;28;1053;-68
2022/09/27 00:42:41;;;;;;;;;;;;;;;19.30;82.59;94342.63;5052698;28;1086;-68
2022/09/27 00:45:12;;;;;;;;;;;;;;;19.37;82.42;94339.81;5037874;28;1105;-69
2022/09/27 00:47:59;;;;;;;;;;;;;;;19.28;83.53;94333.91;5073045;28;1030;-69
2022/09/27 00:50:25;;;;;;;;;;;;;;;19.27;82.84;94340.41;5076725;28;1008;-69
2022/09/27 00:53:12;;;;;;;;;;;;;;;19.20;83.80;94336.97;5076435;28;959;-69
2022/09/27 00:55:47;;;;;;;;;;;;;;;19.20;83.71;94334.28;5076033;28;2018;-69
2022/09/27 00:58:16;;;;;;;;;;;;;;;19.21;83.61;94346.75;5076354;28;1047;-69
2022/09/27 01:00:43;;;;;;;;;;;;;;;19.23;83.83;94341.91;5076240;28;1047;-69
2022/09/27 01:03:13;;;;;;;;;;;;;;;19.20;84.35;94339.69;5076116;28;1032;-68
2022/09/27 01:05:39;;;;;;;;;;;;;;;19.19;84.05;94334.50;5076097;28;1023;-68
2022/09/27 01:08:08;;;;;;;;;;;;;;;19.15;84.34;94328.72;5075897;28;1121;-69
2022/09/27 01:10:39;;;;;;;;;;;;;;;19.14;84.04;94327.06;5076043;28;1040;-69
2022/09/27 01:13:05;;;;;;;;;;;;;;;19.02;85.58;94326.22;5075929;28;1071;-69
2022/09/27 01:15:52;;;;;;;;;;;;;;;19.11;84.94;94336.47;5075978;28;1906;-69
2022/09/27 01:18:21;;;;;;;;;;;;;;;19.16;84.52;94327.66;5035911;28;1048;-69
2022/09/27 01:20:53;;;;;;;;;;;;;;;19.13;84.94;94328.13;5018561;28;1039;-69
2022/09/27 01:23:38;;;;;;;;;;;;;;;19.09;85.71;94326.94;5035760;28;1043;-70
2022/09/27 01:26:22;;;;;;;;;;;;;;;19.07;85.61;94338.03;5035843;28;972;-70
2022/09/27 01:28:48;;;;;;;;;;;;;;;19.07;85.61;94337.19;5035738;28;962;-70
2022/09/27 01:31:24;;;;;;;;;;;;;;;19.07;85.64;94329.88;5018260;28;1031;-70
2022/09/27 01:34:05;;;;;;;;;;;;;;;19.02;86.51;94318.09;5035829;28;1019;-70
2022/09/27 01:36:31;;;;;;;;;;;;;;;19.00;86.24;94329.16;5035740;28;1194;-70
2022/09/27 01:39:21;;;;;;;;;;;;;;;19.01;86.08;94336.25;5035568;28;1033;-70
2022/09/27 01:41:55;;;;;;;;;;;;;;;19.05;86.04;94333.91;5008245;28;1110;-70
2022/09/27 01:44:33;;;;;;;;;;;;;;;19.02;86.58;94328.94;5035678;28;1052;-70
2022/09/27 01:47:18;;;;;;;;;;;;;;;18.94;87.14;94321.16;5051187;28;1256;-70
2022/09/27 01:49:52;;;;;;;;;;;;;;;18.88;86.40;94317.50;5055311;28;1038;-70
2022/09/27 01:52:21;;;;;;;;;;;;;;;18.88;86.65;94317.50;5055378;28;1073;-70
2022/09/27 01:54:52;;;;;;;;;;;;;;;18.89;87.24;94314.56;5055252;28;1987;-70
2022/09/27 01:57:20;;;;;;;;;;;;;;;18.82;87.17;94305.72;5055247;28;1045;-70
2022/09/27 01:59:49;;;;;;;;;;;;;;;18.81;87.47;94300.53;5054493;28;952;-71
2022/09/27 02:02:17;;;;;;;;;;;;;;;18.83;87.27;94299.22;5054629;28;1087;-71
2022/09/27 02:04:46;;;;;;;;;;;;;;;18.85;87.23;94294.41;5055234;28;1054;-70
2022/09/27 02:07:16;;;;;;;;;;;;;;;18.85;86.79;94309.84;5055070;28;1128;-70
2022/09/27 02:09:54;;;;;;;;;;;;;;;18.88;86.53;94301.25;5055020;28;1034;-70
2022/09/27 02:12:22;;;;;;;;;;;;;;;18.90;86.48;94291.00;5054805;28;1096;-70
2022/09/27 02:14:51;;;;;;;;;;;;;;;18.91;86.64;94293.50;5054661;28;1995;-70
2022/09/27 02:17:17;;;;;;;;;;;;;;;18.91;86.11;94292.66;5068911;28;1163;-70
2022/09/27 02:19:51;;;;;;;;;;;;;;;18.94;86.26;94286.78;5074867;28;1028;-70
2022/09/27 02:22:30;;;;;;;;;;;;;;;18.84;86.92;94273.00;5074586;28;1068;-70
2022/09/27 02:24:59;;;;;;;;;;;;;;;18.76;87.00;94271.41;5074650;28;1041;-70
2022/09/27 02:27:28;;;;;;;;;;;;;;;18.78;87.01;94276.59;5074504;28;999;-71
2022/09/27 02:30:00;;;;;;;;;;;;;;;18.84;86.42;94279.22;5074523;28;1031;-71
2022/09/27 02:32:27;;;;;;;;;;;;;;;18.86;86.75;94273.59;5074576;28;967;-71
2022/09/27 02:34:54;;;;;;;;;;;;;;;18.83;86.82;94274.03;5074454;28;1910;-71
2022/09/27 02:37:20;;;;;;;;;;;;;;;18.79;86.98;94273.66;5074315;28;955;-71
2022/09/27 02:39:46;;;;;;;;;;;;;;;18.75;86.83;94269.75;5074295;28;1033;-70
2022/09/27 02:42:12;;;;;;;;;;;;;;;18.77;86.83;94259.53;5056699;28;974;-71
2022/09/27 02:44:39;;;;;;;;;;;;;;;18.76;86.69;94259.75;5074401;28;999;-71
2022/09/27 02:47:15;;;;;;;;;;;;;;;18.72;87.15;94246.69;5073933;28;1186;-70
2022/09/27 02:50:00;;;;;;;;;;;;;;;18.73;87.36;94256.44;5074268;28;1072;-71
2022/09/27 02:52:26;;;;;;;;;;;;;;;18.76;86.69;94244.31;5056295;28;1247;-71
2022/09/27 02:55:08;;;;;;;;;;;;;;;18.80;86.57;94240.13;5074165;28;2043;-71
2022/09/27 02:57:47;;;;;;;;;;;;;;;18.82;86.74;94232.59;5073935;28;1080;-71
2022/09/27 03:00:33;;;;;;;;;;;;;;;18.70;87.38;94235.28;5073976;28;999;-71
2022/09/27 03:03:22;;;;;;;;;;;;;;;18.70;87.09;94231.72;5059947;28;1196;-70
2022/09/27 03:05:57;;;;;;;;;;;;;;;18.68;87.29;94228.44;5063250;28;1301;-70
2022/09/27 03:08:23;;;;;;;;;;;;;;;18.67;87.61;94215.97;5073909;28;1057;-70
2022/09/27 03:10:49;;;;;;;;;;;;;;;18.65;87.73;94207.25;5073700;28;1108;-70
2022/09/27 03:13:15;;;;;;;;;;;;;;;18.68;87.30;94210.28;5073432;28;1065;-70
2022/09/27 03:15:42;;;;;;;;;;;;;;;18.74;87.22;94211.25;5073778;28;1914;-69
2022/09/27 03:18:08;;;;;;;;;;;;;;;18.75;87.31;94198.56;5056006;28;1019;-69
2022/09/27 03:20:34;;;;;;;;;;;;;;;18.74;87.43;94197.69;5073762;28;1025;-70
2022/09/27 03:23:00;;;;;;;;;;;;;;;18.75;87.50;94196.66;5073632;28;1014;-70
2022/09/27 03:25:26;;;;;;;;;;;;;;;18.73;87.81;94193.38;5055933;28;1044;-69
2022/09/27 03:27:52;;;;;;;;;;;;;;;18.67;88.10;94194.31;5073511;28;1043;-70
2022/09/27 03:30:19;;;;;;;;;;;;;;;18.70;87.80;94183.00;5073651;28;1061;-70
2022/09/27 03:32:45;;;;;;;;;;;;;;;18.71;87.53;94190.06;5055698;28;1028;-69
2022/09/27 03:35:11;;;;;;;;;;;;;;;18.78;87.74;94181.81;5055701;28;1906;-70
2022/09/27 03:37:38;;;;;;;;;;;;;;;18.76;87.69;94173.91;5073370;28;906;-70
2022/09/27 03:40:04;;;;;;;;;;;;;;;18.72;87.59;94176.31;5073415;28;970;-70
2022/09/27 03:42:31;;;;;;;;;;;;;;;18.64;87.62;94178.53;5073350;28;1031;-70
2022/09/27 03:44:57;;;;;;;;;;;;;;;18.66;87.77;94182.63;5073075;28;1085;-69
2022/09/27 03:47:23;;;;;;;;;;;;;;;18.66;87.78;94179.94;5073606;28;1041;-69
2022/09/27 03:49:49;;;;;;;;;;;;;;;18.69;87.56;94179.47;5055739;28;1004;-69
2022/09/27 03:52:17;;;;;;;;;;;;;;;18.71;87.65;94173.81;5073299;28;1007;-69
2022/09/27 03:54:43;;;;;;;;;;;;;;;18.70;87.95;94173.00;5073264;28;1983;-70
2022/09/27 03:57:09;;;;;;;;;;;;;;;18.69;88.04;94168.63;5073084;28;1051;-69
2022/09/27 03:59:35;;;;;;;;;;;;;;;18.70;87.56;94166.75;5055327;28;1015;-71
2022/09/27 04:02:02;;;;;;;;;;;;;;;18.68;87.97;94158.03;5073333;28;1046;-71
2022/09/27 04:04:28;;;;;;;;;;;;;;;18.61;88.86;94171.72;5073321;28;1064;-69
2022/09/27 04:06:54;;;;;;;;;;;;;;;18.65;88.64;94163.94;5055426;28;1103;-71
2022/09/27 04:09:20;;;;;;;;;;;;;;;18.65;88.72;94169.34;5073005;28;1091;-71
2022/09/27 04:11:47;;;;;;;;;;;;;;;18.63;88.67;94157.91;5073087;28;961;-72
2022/09/27 04:14:14;;;;;;;;;;;;;;;18.59;89.25;94163.00;5072897;28;1910;-72
2022/09/27 04:16:40;;;;;;;;;;;;;;;18.53;89.04;94156.66;5042704;28;1170;-72
2022/09/27 04:19:06;;;;;;;;;;;;;;;18.59;88.94;94162.16;5049806;28;1031;-72
2022/09/27 04:21:33;;;;;;;;;;;;;;;18.62;89.17;94167.09;5052998;28;1086;-72
2022/09/27 04:23:59;;;;;;;;;;;;;;;18.65;89.13;94172.06;5054383;28;1083;-71
2022/09/27 04:26:25;;;;;;;;;;;;;;;18.64;89.04;94173.09;5056781;28;1087;-70
2022/09/27 04:28:52;;;;;;;;;;;;;;;18.63;89.00;94174.16;5056825;28;1004;-70
2022/09/27 04:31:18;;;;;;;;;;;;;;;18.59;88.88;94172.97;5056850;28;1014;-70
2022/09/27 04:33:44;;;;;;;;;;;;;;;18.58;88.58;94172.16;5056709;28;1079;-71
2022/09/27 04:36:26;;;;;;;;;;;;;;;18.54;88.94;94149.34;5056626;28;1914;-71
2022/09/27 04:38:53;;;;;;;;;;;;;;;18.47;89.05;94152.16;5056740;28;1040;-70
2022/09/27 04:41:20;;;;;;;;;;;;;;;18.54;88.60;94160.97;5056744;28;971;-70
2022/09/27 04:43:46;;;;;;;;;;;;;;;18.58;88.94;94171.34;5056662;28;961;-70
2022/09/27 04:46:12;;;;;;;;;;;;;;;18.62;88.81;94186.88;5056341;28;1101;-71
2022/09/27 04:48:40;;;;;;;;;;;;;;;18.65;88.76;94194.53;5056636;28;926;-70
2022/09/27 04:51:06;;;;;;;;;;;;;;;18.67;88.85;94208.66;5056254;28;1040;-70
2022/09/27 04:53:32;;;;;;;;;;;;;;;18.64;89.14;94206.41;5056274;28;1036;-70
2022/09/27 04:56:04;;;;;;;;;;;;;;;18.63;89.29;94206.63;5055971;28;1913;-70
2022/09/27 04:58:32;;;;;;;;;;;;;;;18.57;89.97;94207.59;5056661;28;1023;-71
2022/09/27 05:00:59;;;;;;;;;;;;;;;18.51;89.93;94203.94;5056241;28;1003;-70
2022/09/27 05:03:25;;;;;;;;;;;;;;;18.47;89.88;94195.44;5056310;28;980;-71
2022/09/27 05:05:51;;;;;;;;;;;;;;;18.45;90.51;94196.75;5038531;28;963;-69
2022/09/27 05:08:17;;;;;;;;;;;;;;;18.55;89.90;94194.28;5055898;28;1011;-70
2022/09/27 05:10:43;;;;;;;;;;;;;;;18.57;90.10;94181.34;5056324;28;996;-70
2022/09/27 05:13:09;;;;;;;;;;;;;;;18.57;90.01;94161.56;5056142;28;1047;-69
2022/09/27 05:15:35;;;;;;;;;;;;;;;18.58;89.54;94177.59;5055990;28;1915;-67
2022/09/27 05:18:01;;;;;;;;;;;;;;;18.62;89.44;94200.41;5055972;28;1128;-70
2022/09/27 05:20:27;;;;;;;;;;;;;;;18.67;89.28;94203.25;5038069;28;1041;-67
2022/09/27 05:22:53;;;;;;;;;;;;;;;18.70;89.33;94199.22;5038084;28;1097;-69
2022/09/27 05:25:20;;;;;;;;;;;;;;;18.74;88.84;94186.88;5038201;28;1358;-63
2022/09/27 05:27:46;;;;;;;;;;;;;;;18.68;89.44;94177.00;5055702;28;1114;-68
2022/09/27 05:30:12;;;;;;;;;;;;;;;18.71;89.51;94171.13;5055577;28;1056;-68
2022/09/27 05:32:49;;;;;;;;;;;;;;;18.67;89.07;94170.75;5055551;28;1017;-67
2022/09/27 05:35:18;;;;;;;;;;;;;;;18.67;89.47;94159.13;5055443;28;1906;-69
2022/09/27 05:37:53;;;;;;;;;;;;;;;18.70;89.15;94166.75;5055503;28;1032;-74
2022/09/27 05:40:23;;;;;;;;;;;;;;;18.71;89.03;94157.59;5055340;28;1080;-69
2022/09/27 05:42:50;;;;;;;;;;;;;;;18.73;89.58;94158.16;5055600;28;1024;-69
2022/09/27 05:45:17;;;;;;;;;;;;;;;18.74;89.28;94148.97;5040000;28;1291;-70
2022/09/27 05:47:43;;;;;;;;;;;;;;;18.78;89.27;94154.75;5075403;28;1110;-70
2022/09/27 05:50:09;;;;;;;;;;;;;;;18.80;89.47;94161.63;5075231;28;950;-70
2022/09/27 05:52:35;;;;;;;;;;;;;;;18.83;89.50;94157.59;5075504;28;1042;-70
2022/09/27 05:55:01;;;;;;;;;;;;;;;18.84;88.94;94154.66;5075219;28;2003;-70
2022/09/27 05:57:27;;;;;;;;;;;;;;;18.88;88.95;94166.66;5075341;28;1058;-70
2022/09/27 05:59:53;;;;;;;;;;;;;;;18.89;89.53;94153.94;5075211;28;1052;-67
2022/09/27 06:02:19;;;;;;;;;;;;;;;18.86;88.57;94152.53;5075098;28;1004;-70
2022/09/27 06:04:45;;;;;;;;;;;;;;;18.75;89.01;94144.41;5074932;28;1036;-70
2022/09/27 06:07:11;;;;;;;;;;;;;;;18.72;89.77;94149.22;5075086;28;1195;-69
2022/09/27 06:09:37;;;;;;;;;;;;;;;18.75;89.55;94145.22;5075168;28;1044;-70
2022/09/27 06:12:03;;;;;;;;;;;;;;;18.77;89.07;94164.75;5074973;28;1041;-69
2022/09/27 06:14:29;;;;;;;;;;;;;;;18.82;88.70;94161.34;5074888;28;1914;-69
2022/09/27 06:16:55;;;;;;;;;;;;;;;18.85;88.94;94161.72;5057058;28;1154;-69
2022/09/27 06:19:21;;;;;;;;;;;;;;;18.88;89.43;94163.97;5074565;28;1031;-69
2022/09/27 06:21:50;;;;;;;;;;;;;;;18.83;89.31;94161.13;5057140;28;1045;-69
2022/09/27 06:24:16;;;;;;;;;;;;;;;18.83;89.58;94155.72;5074742;28;962;-68
2022/09/27 06:26:42;;;;;;;;;;;;;;;18.86;89.38;94139.00;5074583;28;1121;-69
2022/09/27 06:29:09;;;;;;;;;;;;;;;18.81;89.58;94144.28;5074553;28;1053;-69
2022/09/27 06:31:35;;;;;;;;;;;;;;;18.78;89.69;94161.00;5074457;28;1008;-68
2022/09/27 06:34:01;;;;;;;;;;;;;;;18.81;90.18;94152.41;5074378;28;1055;-71
2022/09/27 06:36:27;;;;;;;;;;;;;;;18.79;90.24;94156.41;5074325;28;1979;-69
2022/09/27 06:38:53;;;;;;;;;;;;;;;18.78;89.91;94154.75;5074367;28;1098;-69
2022/09/27 06:41:19;;;;;;;;;;;;;;;18.81;89.91;94147.00;5074240;28;1063;-69
2022/09/27 06:43:47;;;;;;;;;;;;;;;18.80;90.30;94148.06;5074321;28;1053;-69
2022/09/27 06:46:13;;;;;;;;;;;;;;;18.78;90.53;94147.47;5061590;28;1093;-69
2022/09/27 06:48:39;;;;;;;;;;;;;;;18.85;89.68;94126.50;5054089;28;1100;-69
2022/09/27 06:51:05;;;;;;;;;;;;;;;18.89;88.92;94143.94;5054072;28;1243;-69
2022/09/27 06:53:32;;;;;;;;;;;;;;;18.94;89.74;94169.50;5054304;28;1031;-69
2022/09/27 06:55:59;;;;;;;;;;;;;;;18.97;89.58;94169.84;5054009;28;1988;-69
2022/09/27 07:01:10;;;;;;;;;;;;;;;18.97;90.59;94183.38;5053847;28;1088;-69
2022/09/27 07:03:40;;;;;;;;;;;;;;;19.06;89.29;94192.78;5054146;28;944;-69
2022/09/27 07:06:07;;;;;;;;;;;;;;;19.16;89.49;94197.63;5054054;28;1011;-69
2022/09/27 07:08:34;;;;;;;;;;;;;;;19.20;88.85;94198.78;5036129;28;1040;-69
2022/09/27 07:11:01;;;;;;;;;;;;;;;19.16;89.28;94211.16;5053843;28;990;-69
2022/09/27 07:13:31;;;;;;;;;;;;;;;19.15;90.63;94200.56;5053809;28;1142;-69
2022/09/27 07:15:57;;;;;;;;;;;;;;;19.15;89.67;94198.66;5053372;28;1906;-69
2022/09/27 07:18:23;;;;;;;;;;;;;;;19.22;88.57;94193.13;5053917;28;1027;-69
2022/09/27 07:20:49;;;;;;;;;;;;;;;19.29;89.01;94188.38;5053598;28;1047;-69
2022/09/27 07:23:16;;;;;;;;;;;;;;;19.29;89.50;94189.25;5054007;28;954;-69
2022/09/27 07:25:42;;;;;;;;;;;;;;;19.33;89.57;94180.59;5053536;28;1096;-69
2022/09/27 07:28:12;;;;;;;;;;;;;;;19.32;89.31;94171.66;5035752;28;1069;-70
2022/09/27 07:30:38;;;;;;;;;;;;;;;19.35;89.14;94173.06;5053711;28;1030;-69
2022/09/27 07:33:05;;;;;;;;;;;;;;;19.32;88.90;94171.66;5053558;28;1045;-67
2022/09/27 07:35:31;;;;;;;;;;;;;;;19.35;88.64;94171.19;5053349;28;1989;-67
2022/09/27 07:37:57;;;;;;;;;;;;;;;19.39;88.31;94156.09;5053279;28;1040;-68
2022/09/27 07:40:24;;;;;;;;;;;;;;;19.34;89.31;94139.72;5053441;28;1092;-66
2022/09/27 07:42:57;;;;;;;;;;;;;;;19.34;88.85;94158.69;5053445;28;1056;-67
2022/09/27 07:45:24;;;;;;;;;;;;;;;19.37;89.09;94157.38;5058307;28;1200;-67
2022/09/27 07:47:50;;;;;;;;;;;;;;;19.40;89.10;94148.78;5073555;28;962;-68
2022/09/27 07:50:16;;;;;;;;;;;;;;;19.42;88.86;94142.03;5073393;28;1044;-68
2022/09/27 07:52:43;;;;;;;;;;;;;;;19.42;88.86;94143.94;5073395;28;1133;-71
2022/09/27 07:55:10;;;;;;;;;;;;;;;19.46;88.65;94151.38;5073218;28;1902;-68
2022/09/27 07:57:37;;;;;;;;;;;;;;;19.42;88.57;94152.88;5073161;28;1002;-67
2022/09/27 08:00:04;;;;;;;;;;;;;;;19.43;88.71;94148.31;5076843;28;966;-69
2022/09/27 08:02:32;;;;;;;;;;;;;;;19.46;89.24;94134.25;5077592;28;1019;-70
2022/09/27 08:05:01;;;;;;;;;;;;;;;19.42;89.26;94141.22;5077408;28;1123;-69
2022/09/27 08:07:28;;;;;;;;;;;;;;;19.46;89.16;94145.94;5077352;28;1011;-69
2022/09/27 08:09:54;;;;;;;;;;;;;;;19.48;89.68;94145.69;5077185;28;1071;-70
2022/09/27 08:12:21;;;;;;;;;;;;;;;19.50;88.99;94147.09;5077051;28;1040;-70
2022/09/27 08:14:47;;;;;;;;;;;;;;;19.56;88.44;94139.91;5077339;28;1979;-70
2022/09/27 08:17:14;;;;;;;;;;;;;;;19.65;88.86;94140.31;5063402;28;1170;-69
2022/09/27 08:19:40;;;;;;;;;;;;;;;19.75;87.82;94154.13;5056984;28;1103;-70
2022/09/27 08:22:06;;;;;;;;;;;;;;;19.87;87.96;94151.34;5056881;28;1076;-70
2022/09/27 08:24:32;;;;;;;;;;;;;;;19.98;87.58;94141.53;5056872;28;1048;-69
2022/09/27 08:26:59;;;;;;;;;;;;;;;19.98;88.22;94144.22;5056710;28;1403;-69
2022/09/27 08:29:25;;;;;;;;;;;;;;;20.04;87.57;94146.78;5057052;28;1000;-69
2022/09/27 08:31:52;;;;;;;;;;;;;;;20.10;87.43;94144.97;5056957;28;975;-69
2022/09/27 08:34:19;;;;;;;;;;;;;;;20.11;87.00;94134.94;5056761;28;1906;-69
2022/09/27 08:36:45;;;;;;;;;;;;;;;20.16;85.27;94122.28;5056777;28;1126;-69
2022/09/27 08:39:11;;;;;;;;;;;;;;;20.23;86.18;94122.13;5056614;28;1041;-69
2022/09/27 08:41:43;;;;;;;;;;;;;;;20.26;85.69;94117.03;5056528;28;1012;-70
2022/09/27 08:44:13;;;;;;;;;;;;;;;20.42;85.47;94123.53;5056668;28;1016;-67
2022/09/27 08:46:39;;;;;;;;;;;;;;;20.60;85.37;94122.50;5069606;28;1094;-68
2022/09/27 08:49:11;;;;;;;;;;;;;;;20.59;85.25;94123.50;5076493;28;1035;-68
2022/09/27 08:51:38;;;;;;;;;;;;;;;20.56;85.12;94125.91;5076487;28;1036;-68
2022/09/27 08:54:04;;;;;;;;;;;;;;;20.54;85.68;94138.91;5076294;28;971;-68
2022/09/27 08:56:30;;;;;;;;;;;;;;;20.51;86.42;94134.81;5076164;28;1906;-67
2022/09/27 08:59:13;;;;;;;;;;;;;;;20.46;86.84;94145.56;5076505;28;972;-69
2022/09/27 09:01:40;;;;;;;;;;;;;;;20.38;86.93;94144.09;5076223;28;1025;-68
2022/09/27 09:04:07;;;;;;;;;;;;;;;20.29;86.85;94149.09;5076099;28;1076;-68
2022/09/27 09:06:36;;;;;;;;;;;;;;;20.30;86.58;94149.94;5076577;28;1048;-68
2022/09/27 09:09:10;;;;;;;;;;;;;;;20.29;86.39;94138.25;5058043;28;1058;-67
2022/09/27 09:14:36;;;;;;;;;;;;;;;20.55;85.60;94152.25;5076087;28;1902;-68
2022/09/27 09:17:05;;;;;;;;;;;;;;;20.59;84.78;94141.72;5075770;28;1202;-68
2022/09/27 09:19:50;;;;;;;;;;;;;;;20.65;84.49;94138.03;5076185;28;972;-68
2022/09/27 09:22:16;;;;;;;;;;;;;;;20.76;83.71;94136.28;5075925;28;1132;-68
2022/09/27 09:24:51;;;;;;;;;;;;;;;20.85;83.61;94142.94;5075964;28;1016;-68
2022/09/27 09:27:24;;;;;;;;;;;;;;;20.81;82.79;94150.78;5075796;28;979;-68
2022/09/27 09:30:04;;;;;;;;;;;;;;;20.85;83.40;94135.63;5075758;28;1023;-69
2022/09/27 09:32:43;;;;;;;;;;;;;;;20.85;83.59;94129.38;5075814;28;1018;-69
2022/09/27 09:35:25;;;;;;;;;;;;;;;20.84;83.97;94125.81;5057852;28;1906;-69
2022/09/27 09:38:00;;;;;;;;;;;;;;;20.85;83.40;94122.03;5075567;28;1012;-68
2022/09/27 09:40:45;;;;;;;;;;;;;;;20.87;83.93;94119.06;5075787;28;1057;-68
2022/09/27 09:43:25;;;;;;;;;;;;;;;20.81;83.33;94109.19;5075553;28;1006;-68
2022/09/27 09:45:58;;;;;;;;;;;;;;;20.80;82.86;94113.81;5075409;28;1109;-69
2022/09/27 09:48:27;;;;;;;;;;;;;;;20.90;82.60;94115.03;5075663;28;1113;-68
2022/09/27 09:50:55;;;;;;;;;;;;;;;20.97;82.08;94112.94;5075598;28;1011;-68
2022/09/27 09:53:34;;;;;;;;;;;;;;;20.96;82.96;94104.00;5075192;28;919;-69
2022/09/27 09:56:02;;;;;;;;;;;;;;;20.96;83.79;94103.13;5057420;28;1906;-69
2022/09/27 09:58:33;;;;;;;;;;;;;;;21.06;82.33;94095.13;5075615;28;1087;-70
2022/09/27 10:01:10;;;;;;;;;;;;;;;21.13;82.77;94097.66;5075054;28;1050;-70
2022/09/27 10:03:36;;;;;;;;;;;;;;;21.19;82.10;94097.47;5075369;28;1018;-69
2022/09/27 10:06:02;;;;;;;;;;;;;;;21.44;81.58;94104.34;5075429;28;986;-68
2022/09/27 10:08:28;;;;;;;;;;;;;;;21.88;80.54;94093.38;5075069;28;1046;-71
2022/09/27 10:10:54;;;;;;;;;;;;;;;22.23;79.56;94094.75;5075022;28;976;-69
2022/09/27 10:13:21;;;;;;;;;;;;;;;22.46;78.63;94084.63;5074818;28;961;-66
2022/09/27 10:16:10;;;;;;;;;;;;;;;22.47;77.17;94080.84;5072725;28;1909;-68
2022/09/27 10:18:37;;;;;;;;;;;;;;;22.28;78.32;94092.13;5039762;28;1175;-66
2022/09/27 10:21:06;;;;;;;;;;;;;;;22.07;79.22;94091.09;5053931;28;996;-66
2022/09/27 10:23:32;;;;;;;;;;;;;;;21.94;79.33;94091.53;5054663;28;1048;-67
2022/09/27 10:26:03;;;;;;;;;;;;;;;22.08;79.55;94091.91;5054534;28;1103;-66
2022/09/27 10:28:31;;;;;;;;;;;;;;;22.43;78.97;94083.25;5054895;28;949;-66
2022/09/27 10:30:59;;;;;;;;;;;;;;;22.42;77.75;94084.31;5054862;28;1062;-66
2022/09/27 10:33:26;;;;;;;;;;;;;;;22.51;78.83;94087.41;5054595;28;1034;-66
2022/09/27 10:35:52;;;;;;;;;;;;;;;22.47;79.39;94072.66;5054543;28;1993;-67
2022/09/27 10:38:21;;;;;;;;;;;;;;;22.53;78.58;94077.88;5036907;28;1111;-66
2022/09/27 10:40:48;;;;;;;;;;;;;;;22.58;78.38;94082.53;5036604;28;1050;-66
2022/09/27 10:43:23;;;;;;;;;;;;;;;22.65;78.64;94069.53;5054580;28;968;-66
2022/09/27 10:45:49;;;;;;;;;;;;;;;22.65;79.50;94072.25;5054226;28;1235;-66
2022/09/27 10:48:22;;;;;;;;;;;;;;;22.67;79.06;94064.63;5036562;28;1004;-66
2022/09/27 10:51:14;;;;;;;;;;;;;;;22.75;79.40;94072.31;5054214;28;1055;-66
2022/09/27 10:53:44;;;;;;;;;;;;;;;22.61;79.50;94068.38;5050515;28;1179;-67
2022/09/27 10:56:19;;;;;;;;;;;;;;;22.51;80.33;94071.06;5053966;28;1985;-66
2022/09/27 10:58:45;;;;;;;;;;;;;;;22.53;79.99;94061.53;5054359;28;1045;-66
2022/09/27 11:01:11;;;;;;;;;;;;;;;22.78;79.43;94057.31;5053980;28;995;-66
2022/09/27 11:03:51;;;;;;;;;;;;;;;22.75;79.87;94055.94;5053794;28;1086;-66
2022/09/27 11:06:19;;;;;;;;;;;;;;;22.71;79.71;94062.19;5036017;28;1064;-66
2022/09/27 11:08:47;;;;;;;;;;;;;;;22.64;79.93;94058.88;5053797;28;1091;-67
2022/09/27 11:11:13;;;;;;;;;;;;;;;22.70;79.37;94055.91;5053711;28;1134;-67
2022/09/27 11:13:40;;;;;;;;;;;;;;;22.75;79.49;94055.16;5053737;28;1048;-67
2022/09/27 11:16:08;;;;;;;;;;;;;;;22.84;78.71;94044.53;5053505;28;1902;-67
2022/09/27 11:18:47;;;;;;;;;;;;;;;23.07;78.17;94035.97;5036204;28;1028;-68
2022/09/27 11:21:16;;;;;;;;;;;;;;;22.87;79.18;94035.84;5053748;28;1052;-67
2022/09/27 11:23:50;;;;;;;;;;;;;;;22.78;79.76;94038.25;5036058;28;1033;-67
2022/09/27 11:26:34;;;;;;;;;;;;;;;22.70;80.56;94039.56;5053615;28;1081;-67
2022/09/27 11:29:19;;;;;;;;;;;;;;;22.55;79.79;94036.75;5035715;28;1036;-66
2022/09/27 11:31:57;;;;;;;;;;;;;;;22.48;80.63;94017.09;5053436;28;1044;-67
2022/09/27 11:34:42;;;;;;;;;;;;;;;22.41;80.03;94022.78;5053481;28;1902;-67
2022/09/27 11:37:08;;;;;;;;;;;;;;;22.34;81.22;94012.13;5053254;28;910;-68
2022/09/27 11:39:53;;;;;;;;;;;;;;;22.33;81.04;94004.19;5053374;28;1081;-67
2022/09/27 11:42:42;;;;;;;;;;;;;;;22.35;80.80;94010.22;5053406;28;1064;-67
2022/09/27 11:45:17;;;;;;;;;;;;;;;22.40;81.82;94010.25;5056137;28;1085;-68
2022/09/27 11:47:44;;;;;;;;;;;;;;;22.47;81.50;94008.13;5073348;28;966;-67
2022/09/27 11:50:29;;;;;;;;;;;;;;;22.53;80.35;93995.34;5073476;28;1041;-67
2022/09/27 11:53:06;;;;;;;;;;;;;;;22.64;80.15;93980.69;5073502;28;1042;-67
2022/09/27 11:55:36;;;;;;;;;;;;;;;22.82;81.50;93984.84;5055533;28;1914;-67
2022/09/27 11:58:15;;;;;;;;;;;;;;;22.89;81.25;93985.44;5073137;28;988;-67
2022/09/27 12:00:47;;;;;;;;;;;;;;;23.01;74.26;93974.31;5073522;28;1234;-67
2022/09/27 12:03:16;;;;;;;;;;;;;;;23.16;74.39;93965.38;5073119;28;1063;-67
2022/09/27 12:06:01;;;;;;;;;;;;;;;23.22;73.55;93955.31;5073289;28;1066;-66
2022/09/27 12:08:46;;;;;;;;;;;;;;;23.24;71.53;93953.97;5073090;28;1007;-68
2022/09/27 12:11:19;;;;;;;;;;;;;;;23.33;70.83;93959.72;5055546;28;1130;-68
2022/09/27 12:13:51;;;;;;;;;;;;;;;23.50;69.79;93952.09;5073301;28;1041;-68
2022/09/27 12:16:18;;;;;;;;;;;;;;;23.51;69.78;93950.22;5067078;28;1961;-68
2022/09/27 12:18:46;;;;;;;;;;;;;;;23.43;67.98;93946.09;5053002;28;1030;-68
2022/09/27 12:21:12;;;;;;;;;;;;;;;23.44;68.55;93939.53;5052789;28;1041;-68
2022/09/27 12:23:40;;;;;;;;;;;;;;;23.47;67.22;93939.03;5053185;28;948;-67
2022/09/27 12:26:11;;;;;;;;;;;;;;;23.54;67.71;93944.19;5053076;28;1005;-65
2022/09/27 12:28:49;;;;;;;;;;;;;;;23.68;68.64;93934.38;5052975;28;1286;-68
2022/09/27 12:31:15;;;;;;;;;;;;;;;23.86;69.10;93927.59;5052936;28;991;-67
2022/09/27 12:34:02;;;;;;;;;;;;;;;23.91;67.28;93924.84;5052780;28;1033;-68
2022/09/27 12:36:34;;;;;;;;;;;;;;;23.92;66.72;93934.69;5039225;28;1911;-68
2022/09/27 12:39:20;;;;;;;;;;;;;;;23.93;68.10;93933.59;5035247;28;971;-68
2022/09/27 12:41:50;;;;;;;;;;;;;;;23.91;68.55;93924.84;5052747;28;1059;-68
2022/09/27 12:44:16;;;;;;;;;;;;;;;23.94;63.03;93923.47;5053444;28;1031;-67
2022/09/27 12:46:58;;;;;;;;;;;;;;;24.03;64.03;93927.31;5070046;28;1241;-68
2022/09/27 12:49:28;;;;;;;;;;;;;;;24.08;64.49;93921.03;5076662;28;964;-68
2022/09/27 12:52:03;;;;;;;;;;;;;;;24.06;64.42;93921.31;5076506;28;1041;-68
2022/09/27 12:54:47;;;;;;;;;;;;;;;24.09;66.22;93918.03;5076318;28;1991;-68
2022/09/27 12:57:32;;;;;;;;;;;;;;;24.03;64.66;93915.56;5058636;28;1047;-68
2022/09/27 13:00:00;;;;;;;;;;;;;;;23.95;64.59;93911.50;5076266;28;1009;-68
2022/09/27 13:02:29;;;;;;;;;;;;;;;23.94;65.43;93912.56;5076255;28;1044;-69
2022/09/27 13:05:08;;;;;;;;;;;;;;;23.93;66.03;93908.22;5076230;28;1031;-68
2022/09/27 13:07:51;;;;;;;;;;;;;;;23.94;66.85;93897.03;5058571;28;1093;-68
2022/09/27 13:10:19;;;;;;;;;;;;;;;24.03;66.79;93901.91;5076152;28;1060;-68
2022/09/27 13:12:50;;;;;;;;;;;;;;;24.06;65.86;93885.81;5076027;28;1000;-69
2022/09/27 13:15:23;;;;;;;;;;;;;;;23.95;63.91;93889.66;5058117;28;1902;-68
2022/09/27 13:17:52;;;;;;;;;;;;;;;23.95;66.10;93879.53;5075988;28;1155;-67